createdAt,value
2023-03-04T00:00:09.789Z,23.10
2023-03-04T00:02:41.052Z,22.97
2023-03-04T00:05:09.674Z,21.17
2023-03-04T00:07:37.536Z,25.03
2023-03-04T00:10:06.472Z,24.27
2023-03-04T00:12:34.294Z,24.77
2023-03-04T00:15:03.660Z,19.90
2023-03-04T00:17:31.683Z,20.57
2023-03-04T00:19:59.657Z,22.50
2023-03-04T00:22:27.614Z,22.50
2023-03-04T00:24:55.542Z,21.23
2023-03-04T00:27:23.373Z,22.20
2023-03-04T00:29:51.270Z,17.87
2023-03-04T00:32:20.549Z,24.67
2023-03-04T00:34:48.788Z,23.70
2023-03-04T00:37:16.656Z,23.30
2023-03-04T00:39:44.628Z,23.30
2023-03-04T00:42:12.502Z,21.57
2023-03-04T00:44:40.438Z,23.73
2023-03-04T00:47:08.583Z,25.67
2023-03-04T00:49:38.146Z,20.10
2023-03-04T00:52:05.985Z,20.73
2023-03-04T00:54:33.856Z,24.30
2023-03-04T00:57:01.728Z,23.17
2023-03-04T00:59:29.601Z,22.27
2023-03-04T01:01:57.534Z,20.23
2023-03-04T01:04:25.402Z,23.00
2023-03-04T01:06:55.047Z,24.50
2023-03-04T01:09:22.932Z,19.73
2023-03-04T01:11:50.790Z,22.53
2023-03-04T01:14:18.627Z,20.83
2023-03-04T01:16:46.605Z,21.70
2023-03-04T01:19:14.642Z,24.83
2023-03-04T01:21:42.600Z,23.57
2023-03-04T01:24:11.915Z,23.47
2023-03-04T01:26:41.730Z,19.73
2023-03-04T01:29:09.591Z,18.10
2023-03-04T01:31:37.461Z,21.20
2023-03-04T01:34:05.310Z,22.20
2023-03-04T01:36:33.212Z,22.50
2023-03-04T01:39:01.075Z,18.97
2023-03-04T01:41:30.292Z,17.77
2023-03-04T01:44:00.798Z,21.57
2023-03-04T01:46:29.608Z,20.50
2023-03-04T01:48:58.018Z,24.57
2023-03-04T01:51:26.130Z,22.83
2023-03-04T01:53:54.966Z,24.40
2023-03-04T01:56:26.143Z,21.07
2023-03-04T01:59:11.196Z,20.20
2023-03-04T02:01:40.568Z,23.63
2023-03-04T02:04:09.153Z,23.03
2023-03-04T02:06:38.429Z,21.60
2023-03-04T02:09:07.495Z,23.07
2023-03-04T02:11:36.906Z,22.43
2023-03-04T02:14:05.341Z,20.60
2023-03-04T02:16:35.053Z,20.73
2023-03-04T02:19:03.432Z,22.43
2023-03-04T02:21:34.396Z,20.60
2023-03-04T02:24:11.560Z,21.37
2023-03-04T02:26:43.505Z,22.90
2023-03-04T02:29:14.569Z,21.43
2023-03-04T02:31:44.149Z,21.03
2023-03-04T02:34:15.317Z,23.37
2023-03-04T02:36:44.833Z,21.57
2023-03-04T02:39:16.234Z,20.97
2023-03-04T02:41:47.833Z,19.63
2023-03-04T02:44:19.240Z,23.80
2023-03-04T02:46:48.790Z,19.73
2023-03-04T02:49:17.559Z,18.70
2023-03-04T02:51:45.894Z,19.67
2023-03-04T02:54:18.078Z,21.43
2023-03-04T02:56:48.952Z,20.30
2023-03-04T02:59:18.072Z,20.40
2023-03-04T03:01:46.956Z,23.30
2023-03-04T03:04:15.716Z,27.00
2023-03-04T03:06:45.562Z,20.70
2023-03-04T03:09:13.997Z,19.83
2023-03-04T03:11:42.099Z,22.30
2023-03-04T03:14:12.399Z,19.27
2023-03-04T03:16:40.347Z,25.57
2023-03-04T03:19:08.373Z,26.30
2023-03-04T03:21:37.281Z,24.70
2023-03-04T03:24:05.731Z,22.20
2023-03-04T03:26:33.715Z,23.30
2023-03-04T03:29:01.569Z,26.50
2023-03-04T03:31:31.519Z,24.43
2023-03-04T03:33:59.451Z,27.50
2023-03-04T03:36:29.035Z,28.30
2023-03-04T03:38:56.914Z,27.33
2023-03-04T03:41:24.800Z,20.97
2023-03-04T03:43:52.646Z,26.60
2023-03-04T03:46:20.533Z,32.30
2023-03-04T03:48:49.805Z,31.50
2023-03-04T03:51:17.602Z,30.23
2023-03-04T03:53:46.606Z,27.57
2023-03-04T03:56:14.453Z,25.93
2023-03-04T03:58:42.286Z,31.30
2023-03-04T04:01:10.261Z,27.20
2023-03-04T04:03:38.176Z,30.47
2023-03-04T04:06:08.391Z,25.70
2023-03-04T04:08:36.226Z,28.03
2023-03-04T04:11:04.098Z,25.57
2023-03-04T04:13:32.027Z,27.10
2023-03-04T04:15:59.857Z,27.00
2023-03-04T04:18:27.927Z,31.40
2023-03-04T04:20:56.128Z,30.23
2023-03-04T04:23:25.474Z,29.37
2023-03-04T04:25:55.867Z,26.63
2023-03-04T04:28:23.842Z,26.10
2023-03-04T04:30:51.957Z,27.33
2023-03-04T04:33:19.911Z,31.17
2023-03-04T04:35:47.754Z,25.40
2023-03-04T04:38:16.732Z,25.17
2023-03-04T04:40:45.958Z,27.00
2023-03-04T04:43:13.830Z,24.50
2023-03-04T04:45:42.415Z,28.87
2023-03-04T04:48:10.512Z,26.30
2023-03-04T04:50:38.339Z,23.47
2023-03-04T04:53:06.242Z,25.60
2023-03-04T04:55:35.216Z,26.97
2023-03-04T04:58:06.737Z,27.83
2023-03-04T05:00:34.756Z,27.40
2023-03-04T05:03:02.672Z,32.07
2023-03-04T05:05:30.601Z,26.50
2023-03-04T05:07:58.705Z,29.03
2023-03-04T05:10:26.639Z,25.00
2023-03-04T05:12:54.523Z,26.80
2023-03-04T05:15:23.894Z,30.70
2023-03-04T05:17:51.868Z,29.03
2023-03-04T05:20:19.786Z,28.53
2023-03-04T05:22:47.756Z,28.90
2023-03-04T05:25:15.703Z,24.73
2023-03-04T05:27:43.531Z,29.73
2023-03-04T05:30:13.118Z,31.03
2023-03-04T05:32:42.347Z,23.23
2023-03-04T05:35:11.034Z,27.77
2023-03-04T05:37:39.000Z,26.40
2023-03-04T05:40:09.286Z,29.50
2023-03-04T05:42:37.139Z,29.83
2023-03-04T05:45:05.577Z,25.77
2023-03-04T05:47:33.493Z,30.13
2023-03-04T05:50:02.695Z,25.30
2023-03-04T05:52:30.675Z,30.10
2023-03-04T05:54:58.570Z,24.83
2023-03-04T05:57:26.495Z,27.50
2023-03-04T05:59:54.412Z,25.60
2023-03-04T06:02:22.298Z,20.43
2023-03-04T06:04:50.364Z,25.33
2023-03-04T06:07:19.685Z,25.67
2023-03-04T06:09:47.700Z,28.03
2023-03-04T06:12:15.598Z,28.03
2023-03-04T06:14:43.515Z,37.93
2023-03-04T06:17:11.386Z,29.00
2023-03-04T06:19:39.230Z,29.43
2023-03-04T06:22:07.058Z,29.43
2023-03-04T06:24:36.404Z,27.80
2023-03-04T06:27:04.791Z,28.90
2023-03-04T06:29:33.739Z,26.53
2023-03-04T06:32:01.974Z,24.90
2023-03-04T06:34:30.647Z,29.63
2023-03-04T06:36:58.522Z,24.10
2023-03-04T06:39:26.408Z,26.77
2023-03-04T06:41:55.726Z,27.33
2023-03-04T06:44:23.659Z,25.50
2023-03-04T06:46:54.095Z,26.07
2023-03-04T06:49:22.079Z,28.77
2023-03-04T06:51:50.050Z,25.07
2023-03-04T06:54:17.962Z,28.07
2023-03-04T06:56:45.772Z,34.40
2023-03-04T06:59:15.075Z,29.80
2023-03-04T07:01:43.035Z,30.03
2023-03-04T07:04:10.970Z,25.30
2023-03-04T07:06:38.900Z,28.27
2023-03-04T07:09:06.898Z,28.80
2023-03-04T07:11:35.000Z,31.93
2023-03-04T07:14:02.916Z,25.33
2023-03-04T07:16:32.272Z,24.70
2023-03-04T07:19:00.505Z,31.27
2023-03-04T07:21:28.546Z,29.60
2023-03-04T07:23:56.481Z,26.87
2023-03-04T07:26:24.328Z,30.47
2023-03-04T07:28:54.440Z,31.00
2023-03-04T07:31:24.988Z,30.13
2023-03-04T07:33:57.651Z,30.60
2023-03-04T07:36:26.071Z,28.77
2023-03-04T07:38:55.039Z,28.33
2023-03-04T07:41:25.067Z,26.30
2023-03-04T07:43:53.367Z,27.37
2023-03-04T07:46:21.445Z,27.67
2023-03-04T07:48:49.357Z,24.80
2023-03-04T07:51:21.315Z,27.00
2023-03-04T07:53:51.477Z,32.90
2023-03-04T07:56:21.564Z,33.37
2023-03-04T07:58:49.725Z,26.20
2023-03-04T08:01:19.181Z,29.70
2023-03-04T08:03:47.448Z,27.67
2023-03-04T08:06:17.463Z,28.80
2023-03-04T08:08:47.520Z,36.30
2023-03-04T08:11:17.530Z,27.87
2023-03-04T08:13:45.970Z,30.00
2023-03-04T08:16:15.793Z,28.97
2023-03-04T08:18:44.408Z,26.53
2023-03-04T08:21:13.359Z,31.33
2023-03-04T08:23:42.473Z,29.70
2023-03-04T08:26:14.461Z,69.43
2023-03-04T08:28:43.069Z,53.70
2023-03-04T08:31:10.951Z,36.60
2023-03-04T08:33:38.808Z,26.23
2023-03-04T08:36:07.564Z,27.40
2023-03-04T08:38:35.642Z,23.97
2023-03-04T08:41:04.223Z,23.10
2023-03-04T08:43:34.778Z,22.60
2023-03-04T08:46:03.013Z,27.67
2023-03-04T08:48:30.866Z,25.33
2023-03-04T08:50:59.146Z,24.57
2023-03-04T08:53:27.296Z,23.83
2023-03-04T08:55:55.143Z,26.37
2023-03-04T08:58:23.031Z,23.50
2023-03-04T09:00:52.510Z,29.37
2023-03-04T09:03:20.651Z,25.23
2023-03-04T09:05:49.535Z,23.77
2023-03-04T09:08:18.282Z,22.40
2023-03-04T09:10:47.729Z,22.50
2023-03-04T09:13:16.268Z,27.97
2023-03-04T09:15:45.606Z,26.63
2023-03-04T09:18:15.756Z,23.03
2023-03-04T09:20:43.578Z,21.03
2023-03-04T09:23:11.763Z,25.63
2023-03-04T09:25:40.804Z,19.13
2023-03-04T09:28:08.783Z,23.50
2023-03-04T09:30:36.717Z,21.60
2023-03-04T09:33:04.834Z,18.63
2023-03-04T09:35:34.178Z,22.43
2023-03-04T09:38:02.297Z,22.60
2023-03-04T09:40:33.638Z,22.33
2023-03-04T09:43:04.283Z,27.80
2023-03-04T09:45:37.940Z,20.50
2023-03-04T09:48:08.065Z,23.53
2023-03-04T09:50:44.449Z,22.23
2023-03-04T09:53:22.066Z,19.33
2023-03-04T09:55:52.531Z,20.93
2023-03-04T09:58:34.950Z,21.53
2023-03-04T10:01:05.563Z,19.57
2023-03-04T10:03:43.103Z,16.10
2023-03-04T10:06:17.212Z,18.30
2023-03-04T10:08:53.708Z,20.60
2023-03-04T10:11:25.894Z,16.93
2023-03-04T10:14:09.280Z,18.23
2023-03-04T10:16:43.734Z,16.53
2023-03-04T10:19:29.730Z,14.90
2023-03-04T10:21:59.625Z,12.90
2023-03-04T10:24:29.762Z,11.27
2023-03-04T10:27:03.595Z,12.83
2023-03-04T10:29:33.622Z,15.90
2023-03-04T10:32:01.607Z,15.97
2023-03-04T10:34:29.609Z,16.13
2023-03-04T10:37:01.400Z,12.37
2023-03-04T10:39:31.729Z,11.77
2023-03-04T10:42:02.258Z,12.53
2023-03-04T10:44:31.728Z,12.73
2023-03-04T10:47:00.432Z,13.63
2023-03-04T10:49:30.079Z,12.73
2023-03-04T10:52:05.557Z,12.20
2023-03-04T10:54:41.741Z,14.53
2023-03-04T10:57:17.046Z,13.90
2023-03-04T10:59:50.529Z,17.33
2023-03-04T11:02:23.287Z,14.43
2023-03-04T11:04:53.587Z,14.30
2023-03-04T11:07:24.951Z,13.77
2023-03-04T11:09:53.318Z,10.90
2023-03-04T11:12:32.540Z,15.60
2023-03-04T11:15:00.906Z,15.40
2023-03-04T11:17:30.742Z,15.40
2023-03-04T11:20:05.899Z,15.77
2023-03-04T11:22:35.625Z,13.77
2023-03-04T11:25:08.976Z,13.63
2023-03-04T11:27:41.353Z,13.30
2023-03-04T11:30:30.258Z,14.63
2023-03-04T11:33:06.219Z,13.40
2023-03-04T11:35:39.650Z,17.37
2023-03-04T11:38:18.129Z,12.77
2023-03-04T11:40:51.112Z,15.83
2023-03-04T11:43:23.024Z,13.10
2023-03-04T11:46:11.493Z,12.40
2023-03-04T11:48:50.604Z,15.17
2023-03-04T11:51:24.378Z,14.60
2023-03-04T11:54:02.976Z,15.10
2023-03-04T11:56:38.013Z,20.17
2023-03-04T11:59:26.285Z,15.37
2023-03-04T12:02:09.454Z,18.63
2023-03-04T12:05:06.141Z,18.30
2023-03-04T12:07:52.757Z,17.53
2023-03-04T12:10:29.274Z,22.50
2023-03-04T12:13:24.754Z,17.20
2023-03-04T12:16:02.125Z,24.83
2023-03-04T12:18:51.282Z,20.60
2023-03-04T12:21:36.332Z,21.43
2023-03-04T12:24:23.509Z,17.90
2023-03-04T12:26:58.875Z,21.07
2023-03-04T12:29:35.468Z,22.23
2023-03-04T12:32:14.566Z,26.67
2023-03-04T12:35:01.393Z,28.50
2023-03-04T12:37:44.294Z,25.77
2023-03-04T12:40:33.503Z,32.67
2023-03-04T12:43:25.735Z,23.67
2023-03-04T12:46:04.595Z,24.80
2023-03-04T12:48:36.388Z,24.83
2023-03-04T12:51:16.575Z,22.30
2023-03-04T12:53:56.602Z,30.00
2023-03-04T12:56:28.859Z,22.57
2023-03-04T12:58:58.662Z,25.00
2023-03-04T13:01:30.853Z,20.60
2023-03-04T13:04:06.437Z,22.40
2023-03-04T13:06:45.277Z,21.60
2023-03-04T13:09:19.946Z,22.40
2023-03-04T13:11:55.747Z,20.40
2023-03-04T13:14:31.921Z,23.10
2023-03-04T13:17:01.857Z,25.50
2023-03-04T13:19:52.513Z,24.00
2023-03-04T13:22:53.411Z,30.07
2023-03-04T13:25:33.548Z,28.80
2023-03-04T13:28:20.626Z,21.50
2023-03-04T13:31:15.256Z,22.13
2023-03-04T13:34:04.501Z,20.67
2023-03-04T13:36:55.785Z,24.40
2023-03-04T13:39:30.704Z,19.87
2023-03-04T13:41:59.318Z,21.90
2023-03-04T13:45:01.300Z,23.70
2023-03-04T13:47:46.410Z,23.17
2023-03-04T13:50:25.492Z,22.93
2023-03-04T13:52:54.052Z,22.80
2023-03-04T13:55:44.145Z,23.73
2023-03-04T13:58:19.125Z,26.27
2023-03-04T14:00:52.353Z,23.20
2023-03-04T14:03:25.336Z,24.93
2023-03-04T14:06:19.723Z,24.70
2023-03-04T14:08:49.002Z,21.37
2023-03-04T14:11:23.966Z,24.60
2023-03-04T14:13:52.454Z,25.00
2023-03-04T14:16:21.826Z,25.20
2023-03-04T14:18:59.981Z,23.10
2023-03-04T14:21:28.763Z,23.37
2023-03-04T14:24:06.080Z,26.07
2023-03-04T14:26:35.159Z,24.60
2023-03-04T14:29:04.004Z,22.13
2023-03-04T14:31:35.663Z,27.13
2023-03-04T14:34:05.443Z,25.30
2023-03-04T14:36:35.584Z,22.17
2023-03-04T14:39:06.844Z,26.60
2023-03-04T14:41:37.914Z,22.53
2023-03-04T14:44:13.863Z,25.10
2023-03-04T14:46:56.785Z,25.63
2023-03-04T14:49:35.217Z,22.47
2023-03-04T14:52:03.314Z,22.60
2023-03-04T14:54:37.471Z,21.93
2023-03-04T14:57:26.473Z,21.27
2023-03-04T14:59:54.881Z,19.53
2023-03-04T15:02:31.274Z,23.63
2023-03-04T15:05:16.580Z,18.77
2023-03-04T15:07:50.646Z,21.97
2023-03-04T15:10:23.230Z,21.80
2023-03-04T15:12:55.909Z,20.50
2023-03-04T15:15:40.573Z,20.23
2023-03-04T15:18:22.975Z,18.50
2023-03-04T15:21:00.472Z,18.73
2023-03-04T15:23:30.005Z,20.57
2023-03-04T15:25:59.994Z,20.17
2023-03-04T15:28:31.266Z,21.20
2023-03-04T15:30:59.235Z,19.70
2023-03-04T15:33:27.435Z,19.67
2023-03-04T15:36:00.229Z,17.07
2023-03-04T15:38:28.939Z,15.57
2023-03-04T15:40:58.363Z,17.63
2023-03-04T15:43:26.754Z,18.23
2023-03-04T15:45:54.939Z,17.00
2023-03-04T15:48:23.448Z,17.53
2023-03-04T15:50:56.038Z,18.90
2023-03-04T15:53:29.722Z,12.97
2023-03-04T15:55:57.898Z,15.13
2023-03-04T15:58:26.639Z,16.30
2023-03-04T16:00:54.552Z,16.77
2023-03-04T16:03:23.173Z,16.30
2023-03-04T16:05:52.658Z,16.43
2023-03-04T16:08:25.034Z,13.13
2023-03-04T16:10:55.032Z,11.10
2023-03-04T16:13:24.948Z,14.83
2023-03-04T16:15:53.096Z,11.57
2023-03-04T16:18:21.284Z,14.63
2023-03-04T16:20:50.427Z,11.03
2023-03-04T16:23:21.666Z,11.53
2023-03-04T16:25:51.751Z,12.30
2023-03-04T16:28:21.042Z,11.23
2023-03-04T16:30:49.389Z,10.23
2023-03-04T16:33:17.415Z,11.03
2023-03-04T16:35:46.456Z,9.00
2023-03-04T16:38:23.196Z,8.73
2023-03-04T16:40:51.175Z,10.13
2023-03-04T16:43:19.033Z,9.07
2023-03-04T16:45:48.442Z,8.23
2023-03-04T16:48:16.484Z,11.03
2023-03-04T16:50:45.471Z,9.60
2023-03-04T16:53:34.279Z,8.07
2023-03-04T16:56:05.947Z,9.10
2023-03-04T16:58:34.346Z,9.27
2023-03-04T17:01:04.116Z,7.93
2023-03-04T17:03:32.150Z,10.47
2023-03-04T17:06:00.233Z,10.10
2023-03-04T17:08:28.128Z,8.20
2023-03-04T17:10:56.279Z,6.50
2023-03-04T17:13:24.170Z,8.70
2023-03-04T17:15:52.844Z,8.20
2023-03-04T17:18:22.074Z,6.60
2023-03-04T17:20:50.001Z,10.37
2023-03-04T17:23:17.865Z,7.53
2023-03-04T17:25:45.679Z,8.67
2023-03-04T17:28:13.704Z,8.93
2023-03-04T17:30:41.550Z,6.83
2023-03-04T17:33:09.465Z,6.50
2023-03-04T17:35:40.752Z,8.33
2023-03-04T17:38:08.959Z,7.90
2023-03-04T17:40:36.882Z,10.83
2023-03-04T17:43:11.172Z,9.90
2023-03-04T17:45:39.345Z,8.47
2023-03-04T17:48:07.914Z,10.00
2023-03-04T17:50:35.971Z,8.80
2023-03-04T17:53:05.255Z,8.27
2023-03-04T17:55:33.127Z,7.50
2023-03-04T17:58:00.998Z,8.87
2023-03-04T18:00:28.868Z,6.43
2023-03-04T18:02:56.757Z,7.17
2023-03-04T18:05:24.782Z,7.40
2023-03-04T18:07:52.673Z,8.90
2023-03-04T18:10:22.050Z,6.50
2023-03-04T18:12:49.945Z,7.17
2023-03-04T18:15:17.987Z,7.10
2023-03-04T18:17:47.506Z,8.53
2023-03-04T18:20:15.840Z,7.37
2023-03-04T18:22:44.047Z,6.93
2023-03-04T18:25:12.780Z,6.00
2023-03-04T18:27:42.826Z,6.93
2023-03-04T18:30:13.599Z,7.00
2023-03-04T18:32:51.291Z,6.60
2023-03-04T18:35:20.867Z,7.53
2023-03-04T18:37:49.444Z,7.13
2023-03-04T18:40:17.828Z,6.80
2023-03-04T18:42:47.067Z,7.03
2023-03-04T18:45:16.885Z,7.33
2023-03-04T18:47:48.771Z,9.30
2023-03-04T18:50:17.280Z,7.03
2023-03-04T18:52:45.715Z,7.40
2023-03-04T18:55:14.070Z,10.33
2023-03-04T18:57:45.908Z,14.50
2023-03-04T19:00:19.333Z,12.37
2023-03-04T19:02:52.218Z,11.50
2023-03-04T19:05:22.672Z,11.07
2023-03-04T19:07:51.344Z,15.20
2023-03-04T19:10:20.083Z,10.87
2023-03-04T19:12:48.006Z,9.83
2023-03-04T19:15:18.221Z,7.77
2023-03-04T19:17:46.318Z,8.57
2023-03-04T19:20:15.945Z,8.20
2023-03-04T19:22:44.262Z,10.73
2023-03-04T19:25:12.956Z,8.90
2023-03-04T19:27:40.958Z,7.87
2023-03-04T19:30:10.176Z,9.70
2023-03-04T19:32:39.608Z,10.83
2023-03-04T19:35:08.027Z,24.80
2023-03-04T19:37:35.917Z,9.13
2023-03-04T19:40:04.075Z,9.33
2023-03-04T19:42:32.066Z,10.20
2023-03-04T19:45:01.574Z,10.90
2023-03-04T19:47:29.578Z,12.97
2023-03-04T19:49:58.819Z,11.20
2023-03-04T19:52:26.748Z,14.90
2023-03-04T19:54:54.678Z,12.50
2023-03-04T19:57:22.654Z,9.97
2023-03-04T19:59:50.548Z,12.10
2023-03-04T20:02:18.492Z,11.47
2023-03-04T20:04:46.445Z,13.33
2023-03-04T20:07:15.712Z,15.80
2023-03-04T20:09:43.614Z,12.40
2023-03-04T20:12:12.910Z,12.80
2023-03-04T20:14:40.881Z,13.20
2023-03-04T20:17:08.975Z,14.17
2023-03-04T20:19:36.849Z,11.70
2023-03-04T20:22:07.011Z,12.67
2023-03-04T20:24:36.302Z,10.60
2023-03-04T20:27:04.233Z,12.07
2023-03-04T20:29:32.041Z,11.60
2023-03-04T20:31:59.999Z,11.37
2023-03-04T20:34:28.067Z,11.13
2023-03-04T20:36:57.389Z,11.83
2023-03-04T20:39:29.529Z,10.93
2023-03-04T20:41:59.757Z,14.73
2023-03-04T20:44:28.251Z,18.97
2023-03-04T20:46:56.139Z,13.37
2023-03-04T20:49:26.540Z,12.53
2023-03-04T20:51:56.231Z,13.67
2023-03-04T20:54:24.615Z,12.30
2023-03-04T20:56:52.529Z,17.30
2023-03-04T20:59:22.056Z,14.27
2023-03-04T21:01:50.264Z,14.07
2023-03-04T21:04:19.417Z,16.30
2023-03-04T21:06:48.371Z,15.53
2023-03-04T21:09:17.748Z,15.40
2023-03-04T21:11:46.357Z,17.50
2023-03-04T21:14:16.115Z,21.53
2023-03-04T21:16:45.369Z,16.97
2023-03-04T21:19:17.942Z,18.30
2023-03-04T21:21:45.912Z,22.77
2023-03-04T21:24:16.299Z,20.17
2023-03-04T21:26:45.447Z,16.30
2023-03-04T21:29:13.576Z,13.93
2023-03-04T21:31:44.374Z,15.73
2023-03-04T21:34:17.253Z,17.67
2023-03-04T21:36:45.205Z,17.97
2023-03-04T21:39:17.581Z,17.23
2023-03-04T21:41:45.863Z,17.27
2023-03-04T21:44:22.882Z,14.87
2023-03-04T21:46:56.939Z,12.83
2023-03-04T21:49:26.368Z,15.83
2023-03-04T21:51:54.368Z,11.90
2023-03-04T21:54:22.492Z,14.17
2023-03-04T21:56:50.470Z,14.47
2023-03-04T21:59:18.428Z,15.80
2023-03-04T22:01:47.075Z,15.77
2023-03-04T22:04:15.213Z,15.40
2023-03-04T22:06:44.377Z,10.27
2023-03-04T22:09:13.127Z,11.33
2023-03-04T22:11:41.082Z,9.60
2023-03-04T22:14:09.301Z,12.77
2023-03-04T22:16:48.843Z,10.63
2023-03-04T22:19:20.780Z,10.13
2023-03-04T22:21:51.274Z,11.00
2023-03-04T22:24:19.496Z,10.00
2023-03-04T22:26:47.488Z,12.07
2023-03-04T22:29:15.418Z,9.63
2023-03-04T22:31:43.351Z,9.93
2023-03-04T22:34:13.463Z,10.40
2023-03-04T22:36:43.702Z,10.17
2023-03-04T22:39:14.932Z,9.83
2023-03-04T22:41:43.234Z,9.07
2023-03-04T22:44:11.146Z,12.30
2023-03-04T22:46:40.102Z,9.90
2023-03-04T22:49:10.532Z,10.97
2023-03-04T22:51:41.003Z,9.17
2023-03-04T22:54:08.904Z,10.83
2023-03-04T22:56:39.039Z,10.30
2023-03-04T22:59:07.107Z,10.30
2023-03-04T23:01:35.002Z,12.30
2023-03-04T23:04:03.428Z,11.30
2023-03-04T23:06:31.638Z,15.70
2023-03-04T23:09:00.349Z,11.63
2023-03-04T23:11:30.888Z,11.73
2023-03-04T23:14:02.175Z,12.60
2023-03-04T23:16:30.238Z,14.60
2023-03-04T23:18:59.643Z,11.43
2023-03-04T23:21:28.559Z,13.57
2023-03-04T23:23:56.545Z,12.67
2023-03-04T23:26:27.063Z,13.10
2023-03-04T23:28:56.743Z,10.63
2023-03-04T23:31:26.400Z,17.43
2023-03-04T23:33:57.159Z,11.50
2023-03-04T23:36:27.514Z,11.80
2023-03-04T23:38:55.922Z,12.23
2023-03-04T23:41:25.755Z,13.13
2023-03-04T23:43:55.127Z,12.90
2023-03-04T23:46:23.495Z,12.90
2023-03-04T23:48:53.850Z,12.83
2023-03-04T23:51:24.036Z,12.13
2023-03-04T23:53:52.011Z,12.53
2023-03-04T23:56:21.949Z,12.13
2023-03-04T23:58:50.577Z,11.97
